Time;durP1;ratioP1;P1;durP2;ratioP2;P2;SDS_P1;SDS_P2;PMS_P1;PMS_P2;Temp;Humidity;BMP_temperature;BMP_pressure;BME280_temperature;BME280_humidity;BME280_pressure;Samples;Min_cycle;Max_cycle;Signal;HPM_P1;HPM_P2
2023/09/05 13:14:01;;;;;;;;;22.00;22.00;;;;;27.98;40.93;101615.24;115037;1196;57318;-54
2023/09/05 13:16:29;;;;;;;;;19.00;19.00;;;;;27.93;41.06;101614.14;116122;1196;89227;-54
2023/09/05 13:18:58;;;;;;;;;21.50;21.50;;;;;27.86;41.05;101619.41;108086;1196;10002197;-54
2023/09/05 13:21:26;;;;;;;;;21.00;21.00;;;;;27.76;40.89;101616.89;116258;1183;88806;-57
2023/09/05 13:23:55;;;;;;;;;23.33;23.00;;;;;27.71;41.14;101622.62;116263;1180;90286;-54
2023/09/05 13:26:24;;;;;;;;;21.50;20.50;;;;;27.65;41.39;101621.16;116343;1180;73204;-57
2023/09/05 13:28:53;;;;;;;;;21.67;21.67;;;;;27.61;41.53;101618.09;116502;1192;89465;-54
2023/09/05 13:31:21;;;;;;;;;20.00;20.00;;;;;27.62;41.53;101613.05;116127;1181;90179;-52
2023/09/05 13:33:50;;;;;;;;;22.00;21.50;;;;;27.61;42.00;101610.95;116307;1180;73305;-54
2023/09/05 13:36:18;;;;;;;;;22.00;21.50;;;;;27.63;41.78;101615.06;118307;1186;89427;-54
2023/09/05 13:39:03;;;;;;;;;21.00;21.00;;;;;27.84;41.32;101616.21;118469;1186;89806;-57
2023/09/05 13:41:32;;;;;;;;;20.33;20.33;;;;;28.17;40.91;101618.28;117479;1192;73528;-53
2023/09/05 13:44:00;;;;;;;;;21.67;21.00;;;;;28.33;40.16;101615.16;116510;1180;88712;-56
2023/09/05 13:46:32;;;;;;;;;26.33;24.33;;;;;28.22;40.43;101613.39;116423;1179;90637;-52
2023/09/05 13:49:00;;;;;;;;;20.00;20.00;;;;;28.04;41.09;101609.63;116435;1180;72581;-52
2023/09/05 13:51:29;;;;;;;;;23.67;22.67;;;;;27.89;41.27;101614.08;116574;1186;88799;-51
2023/09/05 13:53:57;;;;;;;;;21.67;20.67;;;;;27.70;41.62;101613.40;116526;1181;90562;-51
2023/09/05 13:56:26;;;;;;;;;22.00;22.00;;;;;27.52;41.97;101612.17;116467;1180;73870;-54
2023/09/05 13:58:54;;;;;;;;;22.00;22.00;;;;;27.38;42.34;101611.50;116450;1179;89256;-54
2023/09/05 14:01:23;;;;;;;;;23.67;23.67;;;;;27.28;42.64;101612.65;116494;1180;89835;-54
2023/09/05 14:03:51;;;;;;;;;23.67;22.33;;;;;27.24;42.81;101608.64;116590;1180;73109;-53
2023/09/05 14:06:20;;;;;;;;;23.50;23.50;;;;;27.19;42.87;101605.63;116519;1181;88887;-52
2023/09/05 14:08:49;;;;;;;;;24.50;22.00;;;;;27.13;43.17;101603.75;116364;1184;90498;-54
2023/09/05 14:11:18;;;;;;;;;26.00;24.50;;;;;27.09;43.40;101600.38;116437;1181;73475;-54
2023/09/05 14:13:48;;;;;;;;;24.33;24.33;;;;;27.06;43.37;101603.46;116525;1180;88206;-54
2023/09/05 14:16:19;;;;;;;;;22.50;22.00;;;;;27.04;43.64;101598.30;116464;1180;91364;-54
2023/09/05 14:18:47;;;;;;;;;21.33;21.33;;;;;27.02;43.59;101599.50;116498;1179;73126;-54
2023/09/05 14:21:16;;;;;;;;;20.67;20.67;;;;;27.01;43.38;101599.27;116462;1180;88399;-54
2023/09/05 14:23:45;;;;;;;;;22.00;22.00;;;;;26.98;43.54;101596.16;116490;1180;89565;-53
2023/09/05 14:26:13;;;;;;;;;21.00;21.00;;;;;26.97;43.53;101595.80;116577;1192;74064;-54
2023/09/05 14:28:43;;;;;;;;;23.33;23.33;;;;;26.96;43.35;101599.27;116444;1189;89760;-54
2023/09/05 14:31:12;;;;;;;;;24.00;24.00;;;;;26.93;43.59;101602.35;116431;1182;90492;-54
2023/09/05 14:33:40;;;;;;;;;22.00;22.00;;;;;26.93;43.76;101599.34;116426;1189;73597;-54
2023/09/05 14:36:10;;;;;;;;;22.33;21.67;;;;;26.93;43.38;101602.09;116462;1180;88465;-54
2023/09/05 14:38:38;;;;;;;;;26.33;26.00;;;;;26.93;43.66;101601.88;116340;1180;89806;-54
2023/09/05 14:41:07;;;;;;;;;30.33;28.00;;;;;26.93;43.52;101603.41;116333;1181;73402;-53
2023/09/05 14:43:35;;;;;;;;;23.00;23.00;;;;;26.92;43.66;101597.34;116472;1183;89143;-56
2023/09/05 14:46:04;;;;;;;;;25.00;25.00;;;;;26.93;43.66;101602.14;116485;1180;90651;-54
2023/09/05 14:48:33;;;;;;;;;23.67;23.67;;;;;26.91;43.56;101603.95;116459;1189;73244;-54
2023/09/05 14:51:03;;;;;;;;;27.00;25.00;;;;;26.89;43.66;101601.25;116517;1186;88324;-55
2023/09/05 14:53:32;;;;;;;;;31.00;25.00;;;;;26.88;43.97;101601.34;116458;1180;90081;-54
2023/09/05 14:56:03;;;;;;;;;22.67;22.67;;;;;26.87;43.82;101602.39;116452;1180;73437;-54
2023/09/05 14:58:32;;;;;;;;;26.00;24.00;;;;;26.85;43.95;101604.31;116433;1181;88516;-54
2023/09/05 15:01:01;;;;;;;;;21.50;21.50;;;;;26.82;43.73;101605.55;116427;1181;90436;-54
2023/09/05 15:03:29;;;;;;;;;23.00;23.00;;;;;26.79;43.94;101600.88;116452;1180;72291;-54
2023/09/05 15:05:58;;;;;;;;;25.33;25.33;;;;;26.80;43.87;101603.67;116356;1180;89249;-54
2023/09/05 15:08:26;;;;;;;;;24.33;24.33;;;;;26.82;43.74;101597.54;116515;1180;90500;-54
2023/09/05 15:10:55;;;;;;;;;25.00;25.00;;;;;26.83;43.76;101595.23;116435;1181;74244;-54
2023/09/05 15:13:25;;;;;;;;;24.33;24.33;;;;;26.80;44.01;101598.58;116477;1190;88174;-53
2023/09/05 15:15:54;;;;;;;;;24.00;24.00;;;;;26.79;43.79;101596.59;116332;1189;90271;-54
2023/09/05 15:18:23;;;;;;;;;22.67;22.67;;;;;26.77;43.98;101598.27;116469;1188;72863;-54
2023/09/05 15:20:53;;;;;;;;;24.00;24.00;;;;;26.77;43.74;101598.27;116521;1181;89601;-53
2023/09/05 15:23:21;;;;;;;;;24.00;24.00;;;;;26.77;43.88;101595.73;116512;1179;90035;-54
2023/09/05 15:25:50;;;;;;;;;24.67;24.67;;;;;26.76;43.76;101598.24;116454;1180;73728;-60
2023/09/05 15:28:21;;;;;;;;;284.67;204.67;;;;;26.75;44.00;101598.46;116507;1193;89205;-54
2023/09/05 15:30:49;;;;;;;;;139.33;112.00;;;;;26.74;44.19;101608.17;116521;1179;91320;-53
2023/09/05 15:33:18;;;;;;;;;81.67;68.33;;;;;26.76;44.33;101605.59;116444;1187;73825;-53
2023/09/05 15:35:47;;;;;;;;;73.00;55.00;;;;;26.76;44.33;101603.17;116332;1180;89587;-53
2023/09/05 15:38:15;;;;;;;;;77.67;59.67;;;;;26.77;44.19;101604.35;116475;1180;90490;-53
2023/09/05 15:40:44;;;;;;;;;69.33;52.00;;;;;26.77;44.04;101605.49;116535;1179;73981;-53
2023/09/05 15:43:12;;;;;;;;;69.00;48.33;;;;;26.75;44.04;101604.41;116477;1180;89239;-53
2023/09/05 15:45:48;;;;;;;;;64.67;49.33;;;;;26.74;44.10;101611.34;116507;1180;91285;-54
2023/09/05 15:48:17;;;;;;;;;63.00;47.50;;;;;26.73;44.18;101608.14;116479;1193;72714;-53
2023/09/05 15:50:47;;;;;;;;;64.00;48.00;;;;;26.74;43.98;101610.96;116524;1193;89063;-53
2023/09/05 15:53:16;;;;;;;;;66.00;48.00;;;;;26.74;43.87;101610.95;116417;1193;90432;-53
2023/09/05 15:55:44;;;;;;;;;64.00;45.67;;;;;26.73;43.96;101608.34;116535;1180;73462;-53
2023/09/05 15:58:13;;;;;;;;;61.00;46.67;;;;;26.72;43.93;101611.66;116646;1191;88356;-53
2023/09/05 16:00:42;;;;;;;;;55.00;42.33;;;;;26.70;43.76;101611.13;116646;1179;91310;-53
2023/09/05 16:03:11;;;;;;;;;58.00;43.33;;;;;26.69;44.00;101613.13;116693;1179;74406;-53
2023/09/05 16:05:39;;;;;;;;;53.00;42.00;;;;;26.69;43.92;101614.89;116686;1180;88982;-54
2023/09/05 16:08:08;;;;;;;;;50.00;40.33;;;;;26.68;44.09;101618.61;116625;1180;91213;-53
2023/09/05 16:10:36;;;;;;;;;54.50;41.50;;;;;26.68;44.04;101621.79;116669;1191;73475;-53
2023/09/05 16:13:05;;;;;;;;;50.50;41.00;;;;;26.67;44.01;101624.30;116691;1178;89290;-53
2023/09/05 16:15:33;;;;;;;;;48.67;37.00;;;;;26.67;43.74;101628.30;116679;1180;91615;-54
2023/09/05 16:18:03;;;;;;;;;44.33;36.00;;;;;26.67;43.75;101632.20;116661;1191;73669;-55
2023/09/05 16:20:31;;;;;;;;;46.33;37.00;;;;;26.68;44.01;101628.92;116755;1179;88672;-54
2023/09/05 16:23:17;;;;;;;;;54.33;39.33;;;;;26.72;43.94;101631.80;116641;1180;90180;-54
2023/09/05 16:25:46;;;;;;;;;45.67;36.00;;;;;26.75;43.57;101632.23;116647;1180;73273;-53
2023/09/05 16:28:15;;;;;;;;;52.33;39.33;;;;;26.73;43.60;101639.30;116628;1178;89247;-58
2023/09/05 16:30:43;;;;;;;;;44.33;35.33;;;;;26.71;43.69;101639.25;116624;1179;89990;-57
2023/09/05 16:33:12;;;;;;;;;47.00;35.50;;;;;26.69;43.87;101641.31;116635;1179;73401;-55
2023/09/05 16:35:42;;;;;;;;;40.00;33.33;;;;;26.67;43.59;101643.29;116682;1181;90584;-56
2023/09/05 16:38:10;;;;;;;;;33.33;30.33;;;;;26.66;43.52;101649.08;116380;1185;90893;-55
2023/09/05 16:40:38;;;;;;;;;38.00;33.00;;;;;26.65;43.46;101652.35;116632;1191;73739;-54
2023/09/05 16:43:07;;;;;;;;;40.00;32.00;;;;;26.64;43.38;101654.87;116648;1179;89417;-55
2023/09/05 16:45:36;;;;;;;;;40.67;34.67;;;;;26.63;43.49;101652.44;116618;1178;90717;-56
2023/09/05 16:48:05;;;;;;;;;36.00;31.50;;;;;26.65;43.64;101657.16;116694;1180;72877;-57
2023/09/05 16:50:34;;;;;;;;;32.67;30.00;;;;;26.68;43.75;101659.33;116672;1181;87933;-57
2023/09/05 16:53:02;;;;;;;;;37.33;31.33;;;;;26.70;43.75;101663.08;116672;1184;90105;-56
2023/09/05 16:55:36;;;;;;;;;44.67;32.00;;;;;26.70;43.76;101666.65;116670;1179;73123;-56
2023/09/05 16:58:08;;;;;;;;;38.33;33.33;;;;;26.71;44.00;101669.22;116676;1191;89888;-56
2023/09/05 17:00:40;;;;;;;;;36.00;32.67;;;;;26.73;44.02;101677.93;116682;1179;90501;-56
2023/09/05 17:03:10;;;;;;;;;36.67;32.33;;;;;26.72;43.95;101680.73;116688;1179;72899;-56
2023/09/05 17:05:39;;;;;;;;;37.00;33.33;;;;;26.72;43.80;101687.35;116686;1178;88864;-55
2023/09/05 17:08:08;;;;;;;;;38.00;30.67;;;;;26.71;44.11;101689.70;116616;1181;88941;-56
2023/09/05 17:10:36;;;;;;;;;33.50;29.50;;;;;26.71;44.03;101691.81;116717;1180;74156;-55
2023/09/05 17:13:05;;;;;;;;;37.33;30.67;;;;;26.70;43.98;101693.67;116685;1179;89017;-56
2023/09/05 17:15:33;;;;;;;;;38.00;29.67;;;;;26.70;43.99;101698.14;116684;1180;90838;-56
2023/09/05 17:18:02;;;;;;;;;34.00;26.00;;;;;26.69;43.79;101694.73;116676;1178;74284;-56
2023/09/05 17:20:30;;;;;;;;;29.67;28.33;;;;;26.70;43.98;101696.16;116692;1179;88662;-56
2023/09/05 17:22:59;;;;;;;;;31.33;29.00;;;;;26.69;43.80;101703.60;116675;1180;88857;-56
2023/09/05 17:25:27;;;;;;;;;40.33;33.00;;;;;26.68;43.80;101707.36;116649;1179;73631;-56
2023/09/05 17:27:56;;;;;;;;;30.00;27.50;;;;;26.68;43.82;101705.93;116692;1178;89522;-57
2023/09/05 17:30:25;;;;;;;;;36.67;33.00;;;;;26.68;43.79;101707.41;116624;1188;91405;-56
2023/09/05 17:32:53;;;;;;;;;36.00;32.00;;;;;26.68;43.75;101707.40;116664;1180;72950;-56
2023/09/05 17:35:21;;;;;;;;;31.67;29.67;;;;;26.68;43.93;101711.63;116690;1181;89349;-56
2023/09/05 17:37:50;;;;;;;;;27.00;26.00;;;;;26.66;43.74;101706.38;116655;1188;91020;-56
2023/09/05 17:40:19;;;;;;;;;34.33;29.00;;;;;26.66;43.98;101712.25;116678;1181;73327;-56
2023/09/05 17:50:07;;;;;;;;;33.33;30.67;;;;;27.64;41.80;101714.97;115088;1196;57319;-56
2023/09/05 17:52:35;;;;;;;;;30.00;28.00;;;;;27.48;41.89;101721.83;116313;1184;89764;-55
2023/09/05 17:55:05;;;;;;;;;35.00;31.00;;;;;27.37;42.12;101727.13;116328;1185;90348;-55
2023/09/05 17:57:33;;;;;;;;;31.33;27.67;;;;;27.22;42.50;101730.14;116343;1182;73648;-56
2023/09/05 18:00:02;;;;;;;;;31.33;26.33;;;;;27.11;42.67;101726.71;116318;1184;89297;-57
2023/09/05 18:02:31;;;;;;;;;30.67;29.33;;;;;27.01;42.85;101730.29;116279;1184;90859;-56
2023/09/05 18:04:59;;;;;;;;;31.00;28.50;;;;;26.94;43.19;101734.27;116323;1184;73287;-56
2023/09/05 18:07:28;;;;;;;;;27.50;27.50;;;;;26.88;43.27;101738.22;116275;1183;89847;-57
2023/09/05 18:09:56;;;;;;;;;28.00;26.00;;;;;26.82;43.35;101734.23;116188;1183;90536;-67
2023/09/05 18:12:25;;;;;;;;;24.00;22.67;;;;;26.79;43.37;101739.40;116249;1184;73420;-63
2023/09/05 18:15:19;;;;;;;;;26.00;26.00;;;;;26.80;43.05;101745.23;115956;1184;89565;-57
2023/09/05 18:17:49;;;;;;;;;28.33;24.67;;;;;26.79;43.10;101747.46;116548;1190;89978;-59
2023/09/05 18:20:17;;;;;;;;;30.67;27.67;;;;;26.78;43.18;101748.45;116538;1179;72923;-57
2023/09/05 18:22:46;;;;;;;;;28.67;27.67;;;;;26.72;43.88;101749.64;116472;1184;87975;-56
2023/09/05 18:25:15;;;;;;;;;28.33;23.00;;;;;26.77;43.76;101752.22;116127;1184;90826;-57
2023/09/05 18:27:44;;;;;;;;;26.00;24.00;;;;;26.80;43.63;101754.34;116102;1189;73725;-56
2023/09/05 18:30:13;;;;;;;;;28.00;26.00;;;;;26.81;43.55;101753.88;116069;1192;89447;-58
2023/09/05 18:32:42;;;;;;;;;30.00;24.33;;;;;26.78;43.71;101758.41;115962;1191;90221;-57
2023/09/05 18:35:10;;;;;;;;;27.50;25.00;;;;;26.81;43.70;101760.70;116173;1191;73832;-57
2023/09/05 18:37:39;;;;;;;;;24.00;23.50;;;;;26.82;43.74;101762.65;116143;1184;89129;-57
2023/09/05 18:40:08;;;;;;;;;26.00;25.00;;;;;26.82;43.92;101766.00;116163;1183;92157;-57
2023/09/05 18:42:37;;;;;;;;;24.50;24.50;;;;;26.80;43.72;101764.99;116148;1182;73509;-57
2023/09/05 18:45:06;;;;;;;;;24.67;24.67;;;;;26.80;43.85;101769.55;116569;1179;88504;-56
2023/09/05 18:47:36;;;;;;;;;21.50;21.00;;;;;26.79;43.87;101768.33;116520;1181;91147;-56
2023/09/05 18:50:05;;;;;;;;;22.50;22.50;;;;;26.79;43.72;101769.05;116469;1186;73891;-57
2023/09/05 18:52:37;;;;;;;;;22.33;22.33;;;;;26.81;43.51;101768.31;116468;1192;89885;-57
2023/09/05 18:55:06;;;;;;;;;21.00;20.33;;;;;26.82;43.59;101769.79;116331;1180;89995;-56
2023/09/05 18:57:34;;;;;;;;;19.33;19.00;;;;;26.82;43.48;101770.08;116472;1184;73686;-62
2023/09/05 19:00:04;;;;;;;;;22.67;21.67;;;;;26.84;43.53;101776.11;108171;1180;10000743;-57
2023/09/05 19:02:33;;;;;;;;;29.00;23.50;;;;;26.92;43.78;101779.63;116671;1180;73894;-57
2023/09/05 19:05:01;;;;;;;;;21.00;21.00;;;;;27.05;43.43;101778.59;116438;1181;89020;-57
2023/09/05 19:07:30;;;;;;;;;28.00;24.67;;;;;27.12;42.98;101774.54;116320;1181;89827;-58
2023/09/05 19:09:58;;;;;;;;;25.33;25.00;;;;;27.13;42.96;101767.76;116344;1180;73343;-57
2023/09/05 19:12:27;;;;;;;;;21.00;21.00;;;;;27.14;42.88;101770.76;116292;1184;89320;-59
2023/09/05 19:14:55;;;;;;;;;26.00;24.67;;;;;27.15;42.93;101774.59;116359;1181;90728;-58
2023/09/05 19:17:24;;;;;;;;;26.00;23.50;;;;;27.16;42.84;101771.50;116368;1180;74221;-58
2023/09/05 19:19:52;;;;;;;;;22.67;21.33;;;;;27.18;42.50;101775.48;116278;1186;88855;-59
2023/09/05 19:22:21;;;;;;;;;23.50;20.50;;;;;27.19;42.33;101780.46;116356;1180;91376;-57
2023/09/05 19:24:49;;;;;;;;;25.33;22.33;;;;;27.22;42.61;101780.70;116229;1180;72894;-58
2023/09/05 19:27:17;;;;;;;;;24.33;21.67;;;;;27.29;42.83;101781.34;118455;1179;89564;-58
2023/09/05 19:29:46;;;;;;;;;21.00;21.00;;;;;27.57;42.34;101778.25;118414;1189;91406;-59
2023/09/05 19:32:15;;;;;;;;;21.00;20.00;;;;;27.92;41.44;101777.27;118029;1184;72326;-58
2023/09/05 19:34:44;;;;;;;;;23.00;20.00;;;;;28.15;40.67;101777.44;116381;1180;88226;-59
2023/09/05 19:37:12;;;;;;;;;21.50;21.50;;;;;28.09;40.56;101772.86;116327;1179;91080;-58
2023/09/05 19:39:40;;;;;;;;;17.50;17.00;;;;;27.92;41.10;101773.04;116353;1190;72881;-59
2023/09/05 19:42:09;;;;;;;;;20.00;18.67;;;;;27.77;41.39;101772.67;116269;1192;88835;-64
2023/09/05 19:44:39;;;;;;;;;20.00;18.00;;;;;27.66;41.39;101775.39;116347;1179;91512;-59
2023/09/05 19:54:26;;;;;;;;;22.67;21.33;;;;;28.29;40.19;101786.80;114896;1196;57239;-57
2023/09/05 19:56:55;;;;;;;;;19.00;19.00;;;;;28.15;40.32;101790.42;117479;1184;89595;-61
